sensor_id;sensor_type;location;lat;lon;timestamp;P1;durP1;ratioP1;P2;durP2;ratioP2
44764;SDS011;30484;52.382;5.260;2022-10-16T00:00:32;8.45;;;1.80;;
44764;SDS011;30484;52.382;5.260;2022-10-16T00:03:02;6.68;;;1.90;;
44764;SDS011;30484;52.382;5.260;2022-10-16T00:05:33;7.40;;;1.58;;
44764;SDS011;30484;52.382;5.260;2022-10-16T00:08:13;8.30;;;2.13;;
44764;SDS011;30484;52.382;5.260;2022-10-16T00:10:44;12.45;;;1.85;;
44764;SDS011;30484;52.382;5.260;2022-10-16T00:13:15;8.80;;;1.58;;
44764;SDS011;30484;52.382;5.260;2022-10-16T00:15:46;6.95;;;1.70;;
44764;SDS011;30484;52.382;5.260;2022-10-16T00:18:16;8.13;;;1.80;;
44764;SDS011;30484;52.382;5.260;2022-10-16T00:20:49;9.02;;;1.65;;
44764;SDS011;30484;52.382;5.260;2022-10-16T00:23:18;7.72;;;1.65;;
44764;SDS011;30484;52.382;5.260;2022-10-16T00:25:54;4.07;;;1.50;;
44764;SDS011;30484;52.382;5.260;2022-10-16T00:28:25;7.80;;;1.65;;
44764;SDS011;30484;52.382;5.260;2022-10-16T00:30:54;9.75;;;1.60;;
44764;SDS011;30484;52.382;5.260;2022-10-16T00:33:26;5.55;;;1.60;;
44764;SDS011;30484;52.382;5.260;2022-10-16T00:35:57;4.22;;;1.50;;
44764;SDS011;30484;52.382;5.260;2022-10-16T00:38:26;6.32;;;1.70;;
44764;SDS011;30484;52.382;5.260;2022-10-16T00:40:55;5.72;;;1.77;;
44764;SDS011;30484;52.382;5.260;2022-10-16T00:43:34;5.40;;;1.20;;
44764;SDS011;30484;52.382;5.260;2022-10-16T00:46:09;6.07;;;1.50;;
44764;SDS011;30484;52.382;5.260;2022-10-16T00:48:45;4.68;;;1.75;;
44764;SDS011;30484;52.382;5.260;2022-10-16T00:51:19;6.90;;;1.92;;
44764;SDS011;30484;52.382;5.260;2022-10-16T00:53:57;6.72;;;1.58;;
44764;SDS011;30484;52.382;5.260;2022-10-16T00:56:27;6.35;;;1.50;;
44764;SDS011;30484;52.382;5.260;2022-10-16T00:58:59;5.28;;;1.50;;
44764;SDS011;30484;52.382;5.260;2022-10-16T01:04:00;7.43;;;1.85;;
44764;SDS011;30484;52.382;5.260;2022-10-16T01:06:31;5.57;;;1.90;;
44764;SDS011;30484;52.382;5.260;2022-10-16T01:09:13;4.88;;;1.60;;
44764;SDS011;30484;52.382;5.260;2022-10-16T01:11:52;8.07;;;1.80;;
44764;SDS011;30484;52.382;5.260;2022-10-16T01:14:35;5.68;;;1.33;;
44764;SDS011;30484;52.382;5.260;2022-10-16T01:17:12;7.88;;;1.40;;
44764;SDS011;30484;52.382;5.260;2022-10-16T01:19:51;7.30;;;1.90;;
44764;SDS011;30484;52.382;5.260;2022-10-16T01:22:48;6.55;;;1.80;;
44764;SDS011;30484;52.382;5.260;2022-10-16T01:25:40;6.72;;;1.50;;
44764;SDS011;30484;52.382;5.260;2022-10-16T01:28:45;9.23;;;1.90;;
44764;SDS011;30484;52.382;5.260;2022-10-16T01:31:22;4.25;;;1.30;;
44764;SDS011;30484;52.382;5.260;2022-10-16T01:33:56;8.18;;;1.67;;
44764;SDS011;30484;52.382;5.260;2022-10-16T01:36:31;5.00;;;1.25;;
44764;SDS011;30484;52.382;5.260;2022-10-16T01:39:07;4.32;;;1.48;;
44764;SDS011;30484;52.382;5.260;2022-10-16T01:41:39;6.38;;;1.70;;
44764;SDS011;30484;52.382;5.260;2022-10-16T01:44:16;6.28;;;1.60;;
44764;SDS011;30484;52.382;5.260;2022-10-16T01:46:50;2.10;;;1.25;;
44764;SDS011;30484;52.382;5.260;2022-10-16T01:49:21;7.65;;;1.38;;
44764;SDS011;30484;52.382;5.260;2022-10-16T01:51:57;8.10;;;1.40;;
44764;SDS011;30484;52.382;5.260;2022-10-16T01:54:30;8.07;;;1.50;;
44764;SDS011;30484;52.382;5.260;2022-10-16T01:57:03;5.32;;;1.55;;
44764;SDS011;30484;52.382;5.260;2022-10-16T01:59:35;3.53;;;1.50;;
44764;SDS011;30484;52.382;5.260;2022-10-16T02:02:10;3.13;;;1.48;;
44764;SDS011;30484;52.382;5.260;2022-10-16T02:04:42;4.75;;;1.63;;
44764;SDS011;30484;52.382;5.260;2022-10-16T02:07:13;3.95;;;1.60;;
44764;SDS011;30484;52.382;5.260;2022-10-16T02:09:46;11.30;;;1.80;;
44764;SDS011;30484;52.382;5.260;2022-10-16T02:12:19;4.60;;;1.73;;
44764;SDS011;30484;52.382;5.260;2022-10-16T02:15:02;3.00;;;1.30;;
44764;SDS011;30484;52.382;5.260;2022-10-16T02:17:33;4.65;;;1.48;;
44764;SDS011;30484;52.382;5.260;2022-10-16T02:20:03;6.05;;;2.03;;
44764;SDS011;30484;52.382;5.260;2022-10-16T02:22:33;8.75;;;1.60;;
44764;SDS011;30484;52.382;5.260;2022-10-16T02:27:41;5.40;;;1.60;;
44764;SDS011;30484;52.382;5.260;2022-10-16T02:30:21;4.97;;;1.58;;
44764;SDS011;30484;52.382;5.260;2022-10-16T02:32:58;6.60;;;1.92;;
44764;SDS011;30484;52.382;5.260;2022-10-16T02:35:30;3.85;;;1.70;;
44764;SDS011;30484;52.382;5.260;2022-10-16T02:38:00;6.72;;;1.83;;
44764;SDS011;30484;52.382;5.260;2022-10-16T02:40:31;7.80;;;1.67;;
44764;SDS011;30484;52.382;5.260;2022-10-16T02:43:03;7.35;;;1.63;;
44764;SDS011;30484;52.382;5.260;2022-10-16T02:45:34;8.43;;;1.85;;
44764;SDS011;30484;52.382;5.260;2022-10-16T02:48:03;7.60;;;2.05;;
44764;SDS011;30484;52.382;5.260;2022-10-16T02:50:32;6.90;;;1.83;;
44764;SDS011;30484;52.382;5.260;2022-10-16T02:53:06;8.77;;;1.70;;
44764;SDS011;30484;52.382;5.260;2022-10-16T02:55:35;6.63;;;1.90;;
44764;SDS011;30484;52.382;5.260;2022-10-16T02:58:05;8.77;;;1.80;;
44764;SDS011;30484;52.382;5.260;2022-10-16T03:00:36;5.25;;;1.83;;
44764;SDS011;30484;52.382;5.260;2022-10-16T03:03:05;5.65;;;2.00;;
44764;SDS011;30484;52.382;5.260;2022-10-16T03:05:34;5.93;;;2.42;;
44764;SDS011;30484;52.382;5.260;2022-10-16T03:08:03;5.15;;;2.05;;
44764;SDS011;30484;52.382;5.260;2022-10-16T03:10:35;4.80;;;2.45;;
44764;SDS011;30484;52.382;5.260;2022-10-16T03:13:05;3.47;;;2.10;;
44764;SDS011;30484;52.382;5.260;2022-10-16T03:15:34;9.32;;;3.10;;
44764;SDS011;30484;52.382;5.260;2022-10-16T03:18:04;6.78;;;2.88;;
44764;SDS011;30484;52.382;5.260;2022-10-16T03:20:32;8.27;;;2.88;;
44764;SDS011;30484;52.382;5.260;2022-10-16T03:23:01;8.70;;;2.65;;
44764;SDS011;30484;52.382;5.260;2022-10-16T03:25:30;8.00;;;2.85;;
44764;SDS011;30484;52.382;5.260;2022-10-16T03:27:59;6.72;;;2.60;;
44764;SDS011;30484;52.382;5.260;2022-10-16T03:30:31;7.53;;;2.60;;
44764;SDS011;30484;52.382;5.260;2022-10-16T03:33:03;9.50;;;2.80;;
44764;SDS011;30484;52.382;5.260;2022-10-16T03:35:32;6.40;;;2.92;;
44764;SDS011;30484;52.382;5.260;2022-10-16T03:38:01;7.90;;;2.70;;
44764;SDS011;30484;52.382;5.260;2022-10-16T03:40:31;10.77;;;2.85;;
44764;SDS011;30484;52.382;5.260;2022-10-16T03:43:00;9.90;;;2.45;;
44764;SDS011;30484;52.382;5.260;2022-10-16T03:45:29;7.22;;;2.70;;
44764;SDS011;30484;52.382;5.260;2022-10-16T03:47:58;6.28;;;2.60;;
44764;SDS011;30484;52.382;5.260;2022-10-16T03:50:33;13.05;;;2.65;;
44764;SDS011;30484;52.382;5.260;2022-10-16T03:53:03;8.70;;;2.40;;
44764;SDS011;30484;52.382;5.260;2022-10-16T03:55:32;6.82;;;2.58;;
44764;SDS011;30484;52.382;5.260;2022-10-16T03:58:02;6.30;;;2.13;;
44764;SDS011;30484;52.382;5.260;2022-10-16T04:00:30;9.15;;;2.40;;
44764;SDS011;30484;52.382;5.260;2022-10-16T04:03:01;8.68;;;2.88;;
44764;SDS011;30484;52.382;5.260;2022-10-16T04:05:32;8.75;;;2.22;;
44764;SDS011;30484;52.382;5.260;2022-10-16T04:08:01;7.55;;;2.53;;
44764;SDS011;30484;52.382;5.260;2022-10-16T04:10:31;13.85;;;2.80;;
44764;SDS011;30484;52.382;5.260;2022-10-16T04:13:00;5.75;;;2.40;;
44764;SDS011;30484;52.382;5.260;2022-10-16T04:15:31;6.85;;;2.50;;
44764;SDS011;30484;52.382;5.260;2022-10-16T04:18:00;6.57;;;2.55;;
44764;SDS011;30484;52.382;5.260;2022-10-16T04:20:29;5.90;;;2.03;;
44764;SDS011;30484;52.382;5.260;2022-10-16T04:23:01;5.13;;;2.35;;
44764;SDS011;30484;52.382;5.260;2022-10-16T04:25:30;6.75;;;2.70;;
44764;SDS011;30484;52.382;5.260;2022-10-16T04:27:59;4.25;;;2.40;;
44764;SDS011;30484;52.382;5.260;2022-10-16T04:30:28;5.10;;;2.20;;
44764;SDS011;30484;52.382;5.260;2022-10-16T04:33:00;8.35;;;2.35;;
44764;SDS011;30484;52.382;5.260;2022-10-16T04:35:32;6.38;;;2.60;;
44764;SDS011;30484;52.382;5.260;2022-10-16T04:38:00;6.22;;;2.70;;
44764;SDS011;30484;52.382;5.260;2022-10-16T04:40:30;5.85;;;2.70;;
44764;SDS011;30484;52.382;5.260;2022-10-16T04:43:04;8.52;;;2.70;;
44764;SDS011;30484;52.382;5.260;2022-10-16T04:45:34;9.02;;;2.78;;
44764;SDS011;30484;52.382;5.260;2022-10-16T04:48:03;6.43;;;2.95;;
44764;SDS011;30484;52.382;5.260;2022-10-16T04:50:33;8.07;;;2.67;;
44764;SDS011;30484;52.382;5.260;2022-10-16T04:53:03;7.28;;;2.80;;
44764;SDS011;30484;52.382;5.260;2022-10-16T04:55:36;6.85;;;2.63;;
44764;SDS011;30484;52.382;5.260;2022-10-16T04:58:07;7.63;;;2.50;;
44764;SDS011;30484;52.382;5.260;2022-10-16T05:00:37;4.53;;;2.10;;
44764;SDS011;30484;52.382;5.260;2022-10-16T05:03:07;6.90;;;2.33;;
44764;SDS011;30484;52.382;5.260;2022-10-16T05:05:41;9.68;;;2.30;;
44764;SDS011;30484;52.382;5.260;2022-10-16T05:08:11;6.00;;;2.65;;
44764;SDS011;30484;52.382;5.260;2022-10-16T05:10:42;8.25;;;2.85;;
44764;SDS011;30484;52.382;5.260;2022-10-16T05:13:14;6.28;;;2.10;;
44764;SDS011;30484;52.382;5.260;2022-10-16T05:15:46;4.97;;;2.53;;
44764;SDS011;30484;52.382;5.260;2022-10-16T05:18:17;10.57;;;2.50;;
44764;SDS011;30484;52.382;5.260;2022-10-16T05:20:48;5.45;;;2.60;;
44764;SDS011;30484;52.382;5.260;2022-10-16T05:23:18;8.70;;;2.40;;
44764;SDS011;30484;52.382;5.260;2022-10-16T05:25:54;7.03;;;2.38;;
44764;SDS011;30484;52.382;5.260;2022-10-16T05:28:25;4.38;;;2.30;;
44764;SDS011;30484;52.382;5.260;2022-10-16T05:30:56;6.88;;;2.58;;
44764;SDS011;30484;52.382;5.260;2022-10-16T05:33:28;4.63;;;2.17;;
44764;SDS011;30484;52.382;5.260;2022-10-16T05:36:01;13.85;;;2.92;;
44764;SDS011;30484;52.382;5.260;2022-10-16T05:38:33;7.63;;;2.50;;
44764;SDS011;30484;52.382;5.260;2022-10-16T05:41:04;5.90;;;2.55;;
44764;SDS011;30484;52.382;5.260;2022-10-16T05:43:34;8.60;;;3.00;;
44764;SDS011;30484;52.382;5.260;2022-10-16T05:46:04;10.45;;;2.60;;
44764;SDS011;30484;52.382;5.260;2022-10-16T05:48:36;6.68;;;2.67;;
44764;SDS011;30484;52.382;5.260;2022-10-16T05:51:08;5.50;;;2.88;;
44764;SDS011;30484;52.382;5.260;2022-10-16T05:53:42;8.75;;;2.85;;
44764;SDS011;30484;52.382;5.260;2022-10-16T05:56:13;5.63;;;2.90;;
44764;SDS011;30484;52.382;5.260;2022-10-16T05:58:43;7.95;;;2.80;;
44764;SDS011;30484;52.382;5.260;2022-10-16T06:01:14;5.85;;;2.85;;
44764;SDS011;30484;52.382;5.260;2022-10-16T06:03:46;8.13;;;2.92;;
44764;SDS011;30484;52.382;5.260;2022-10-16T06:06:18;9.32;;;3.15;;
44764;SDS011;30484;52.382;5.260;2022-10-16T06:08:49;8.57;;;2.75;;
44764;SDS011;30484;52.382;5.260;2022-10-16T06:11:20;7.45;;;2.85;;
44764;SDS011;30484;52.382;5.260;2022-10-16T06:13:51;6.85;;;2.85;;
44764;SDS011;30484;52.382;5.260;2022-10-16T06:16:27;7.18;;;2.20;;
44764;SDS011;30484;52.382;5.260;2022-10-16T06:18:57;9.82;;;2.60;;
44764;SDS011;30484;52.382;5.260;2022-10-16T06:21:28;5.82;;;2.00;;
44764;SDS011;30484;52.382;5.260;2022-10-16T06:23:57;6.93;;;1.98;;
44764;SDS011;30484;52.382;5.260;2022-10-16T06:26:27;7.75;;;1.90;;
44764;SDS011;30484;52.382;5.260;2022-10-16T06:28:58;3.28;;;1.60;;
44764;SDS011;30484;52.382;5.260;2022-10-16T06:31:30;8.68;;;2.08;;
44764;SDS011;30484;52.382;5.260;2022-10-16T06:34:00;8.55;;;1.98;;
44764;SDS011;30484;52.382;5.260;2022-10-16T06:36:32;8.63;;;2.15;;
44764;SDS011;30484;52.382;5.260;2022-10-16T06:39:02;14.45;;;2.53;;
44764;SDS011;30484;52.382;5.260;2022-10-16T06:41:31;9.40;;;2.22;;
44764;SDS011;30484;52.382;5.260;2022-10-16T06:44:00;8.55;;;2.78;;
44764;SDS011;30484;52.382;5.260;2022-10-16T06:46:31;5.43;;;2.53;;
44764;SDS011;30484;52.382;5.260;2022-10-16T06:49:02;8.60;;;2.50;;
44764;SDS011;30484;52.382;5.260;2022-10-16T06:51:32;7.72;;;2.63;;
44764;SDS011;30484;52.382;5.260;2022-10-16T06:54:08;9.43;;;2.97;;
44764;SDS011;30484;52.382;5.260;2022-10-16T06:56:37;7.25;;;2.63;;
44764;SDS011;30484;52.382;5.260;2022-10-16T06:59:05;14.38;;;2.90;;
44764;SDS011;30484;52.382;5.260;2022-10-16T07:01:35;11.82;;;3.42;;
44764;SDS011;30484;52.382;5.260;2022-10-16T07:04:04;14.30;;;3.53;;
44764;SDS011;30484;52.382;5.260;2022-10-16T07:06:35;8.00;;;3.10;;
44764;SDS011;30484;52.382;5.260;2022-10-16T07:09:04;9.48;;;3.00;;
44764;SDS011;30484;52.382;5.260;2022-10-16T07:11:36;10.07;;;3.10;;
44764;SDS011;30484;52.382;5.260;2022-10-16T07:14:09;12.75;;;4.13;;
44764;SDS011;30484;52.382;5.260;2022-10-16T07:16:45;11.25;;;3.13;;
44764;SDS011;30484;52.382;5.260;2022-10-16T07:19:17;7.75;;;3.35;;
44764;SDS011;30484;52.382;5.260;2022-10-16T07:21:50;10.23;;;3.20;;
44764;SDS011;30484;52.382;5.260;2022-10-16T07:24:18;12.55;;;3.50;;
44764;SDS011;30484;52.382;5.260;2022-10-16T07:26:48;9.98;;;3.58;;
44764;SDS011;30484;52.382;5.260;2022-10-16T07:29:18;9.18;;;3.97;;
44764;SDS011;30484;52.382;5.260;2022-10-16T07:31:50;9.85;;;3.25;;
44764;SDS011;30484;52.382;5.260;2022-10-16T07:34:19;11.93;;;2.85;;
44764;SDS011;30484;52.382;5.260;2022-10-16T07:36:50;9.80;;;2.78;;
44764;SDS011;30484;52.382;5.260;2022-10-16T07:39:20;5.25;;;2.20;;
44764;SDS011;30484;52.382;5.260;2022-10-16T07:41:49;13.93;;;5.40;;
44764;SDS011;30484;52.382;5.260;2022-10-16T07:44:18;13.00;;;3.28;;
44764;SDS011;30484;52.382;5.260;2022-10-16T07:46:47;12.60;;;3.17;;
44764;SDS011;30484;52.382;5.260;2022-10-16T07:49:16;11.13;;;2.65;;
44764;SDS011;30484;52.382;5.260;2022-10-16T07:51:45;8.43;;;2.25;;
44764;SDS011;30484;52.382;5.260;2022-10-16T07:54:17;10.25;;;2.30;;
44764;SDS011;30484;52.382;5.260;2022-10-16T07:56:45;12.25;;;2.13;;
44764;SDS011;30484;52.382;5.260;2022-10-16T07:59:15;10.43;;;2.15;;
44764;SDS011;30484;52.382;5.260;2022-10-16T08:01:43;8.07;;;1.85;;
44764;SDS011;30484;52.382;5.260;2022-10-16T08:04:12;6.35;;;1.65;;
44764;SDS011;30484;52.382;5.260;2022-10-16T08:06:43;13.05;;;2.10;;
44764;SDS011;30484;52.382;5.260;2022-10-16T08:09:14;9.27;;;1.88;;
44764;SDS011;30484;52.382;5.260;2022-10-16T08:11:43;6.95;;;1.77;;
44764;SDS011;30484;52.382;5.260;2022-10-16T08:14:11;9.82;;;1.60;;
44764;SDS011;30484;52.382;5.260;2022-10-16T08:16:42;6.68;;;1.80;;
44764;SDS011;30484;52.382;5.260;2022-10-16T08:19:12;7.28;;;1.50;;
44764;SDS011;30484;52.382;5.260;2022-10-16T08:21:41;9.15;;;1.80;;
44764;SDS011;30484;52.382;5.260;2022-10-16T08:24:10;8.23;;;1.65;;
44764;SDS011;30484;52.382;5.260;2022-10-16T08:26:43;11.93;;;2.13;;
44764;SDS011;30484;52.382;5.260;2022-10-16T08:29:13;8.43;;;1.70;;
44764;SDS011;30484;52.382;5.260;2022-10-16T08:31:41;10.02;;;2.00;;
44764;SDS011;30484;52.382;5.260;2022-10-16T08:34:11;11.43;;;1.85;;
44764;SDS011;30484;52.382;5.260;2022-10-16T08:36:40;10.90;;;2.15;;
44764;SDS011;30484;52.382;5.260;2022-10-16T08:39:10;12.80;;;1.90;;
44764;SDS011;30484;52.382;5.260;2022-10-16T08:41:57;14.57;;;2.50;;
44764;SDS011;30484;52.382;5.260;2022-10-16T08:44:56;11.15;;;2.35;;
44764;SDS011;30484;52.382;5.260;2022-10-16T08:47:54;13.43;;;2.28;;
44764;SDS011;30484;52.382;5.260;2022-10-16T08:50:37;8.70;;;2.22;;
44764;SDS011;30484;52.382;5.260;2022-10-16T08:53:19;11.10;;;1.80;;
44764;SDS011;30484;52.382;5.260;2022-10-16T08:55:53;7.07;;;1.98;;
44764;SDS011;30484;52.382;5.260;2022-10-16T08:58:26;12.82;;;2.42;;
44764;SDS011;30484;52.382;5.260;2022-10-16T09:00:58;13.20;;;1.95;;
44764;SDS011;30484;52.382;5.260;2022-10-16T09:03:33;14.00;;;2.20;;
44764;SDS011;30484;52.382;5.260;2022-10-16T09:06:24;7.90;;;2.13;;
44764;SDS011;30484;52.382;5.260;2022-10-16T09:09:15;12.85;;;2.30;;
44764;SDS011;30484;52.382;5.260;2022-10-16T09:12:24;10.18;;;1.85;;
44764;SDS011;30484;52.382;5.260;2022-10-16T09:15:11;11.95;;;2.42;;
44764;SDS011;30484;52.382;5.260;2022-10-16T09:17:50;8.30;;;1.80;;
44764;SDS011;30484;52.382;5.260;2022-10-16T09:20:31;12.38;;;2.13;;
44764;SDS011;30484;52.382;5.260;2022-10-16T09:23:14;10.90;;;2.47;;
44764;SDS011;30484;52.382;5.260;2022-10-16T09:25:47;12.07;;;2.00;;
44764;SDS011;30484;52.382;5.260;2022-10-16T09:28:17;10.65;;;2.05;;
44764;SDS011;30484;52.382;5.260;2022-10-16T09:30:51;14.07;;;2.15;;
44764;SDS011;30484;52.382;5.260;2022-10-16T09:33:25;10.85;;;2.22;;
44764;SDS011;30484;52.382;5.260;2022-10-16T09:36:02;24.23;;;2.28;;
44764;SDS011;30484;52.382;5.260;2022-10-16T09:38:33;13.32;;;2.28;;
44764;SDS011;30484;52.382;5.260;2022-10-16T09:41:10;11.32;;;2.30;;
44764;SDS011;30484;52.382;5.260;2022-10-16T09:43:53;13.77;;;2.53;;
44764;SDS011;30484;52.382;5.260;2022-10-16T09:46:28;12.68;;;2.53;;
44764;SDS011;30484;52.382;5.260;2022-10-16T09:49:02;16.30;;;2.23;;
44764;SDS011;30484;52.382;5.260;2022-10-16T09:51:36;14.68;;;3.15;;
44764;SDS011;30484;52.382;5.260;2022-10-16T09:54:12;18.13;;;2.78;;
44764;SDS011;30484;52.382;5.260;2022-10-16T09:56:45;15.70;;;2.40;;
44764;SDS011;30484;52.382;5.260;2022-10-16T09:59:18;14.30;;;2.80;;
44764;SDS011;30484;52.382;5.260;2022-10-16T10:01:52;17.13;;;2.47;;
44764;SDS011;30484;52.382;5.260;2022-10-16T10:04:23;15.05;;;2.40;;
44764;SDS011;30484;52.382;5.260;2022-10-16T10:06:55;18.67;;;3.95;;
44764;SDS011;30484;52.382;5.260;2022-10-16T10:09:27;19.15;;;3.28;;
44764;SDS011;30484;52.382;5.260;2022-10-16T10:12:02;19.67;;;2.97;;
44764;SDS011;30484;52.382;5.260;2022-10-16T10:14:34;13.18;;;2.45;;
44764;SDS011;30484;52.382;5.260;2022-10-16T10:17:12;17.95;;;2.75;;
44764;SDS011;30484;52.382;5.260;2022-10-16T10:19:46;16.25;;;2.55;;
44764;SDS011;30484;52.382;5.260;2022-10-16T10:22:24;10.57;;;2.03;;
44764;SDS011;30484;52.382;5.260;2022-10-16T10:25:00;18.88;;;2.80;;
44764;SDS011;30484;52.382;5.260;2022-10-16T10:31:01;13.80;;;2.05;;
44764;SDS011;30484;52.382;5.260;2022-10-16T10:33:42;13.23;;;2.67;;
44764;SDS011;30484;52.382;5.260;2022-10-16T10:36:25;12.05;;;2.78;;
44764;SDS011;30484;52.382;5.260;2022-10-16T10:39:02;14.10;;;2.47;;
44764;SDS011;30484;52.382;5.260;2022-10-16T10:44:51;15.85;;;2.55;;
44764;SDS011;30484;52.382;5.260;2022-10-16T10:47:36;13.52;;;2.80;;
44764;SDS011;30484;52.382;5.260;2022-10-16T10:50:20;19.77;;;3.05;;
44764;SDS011;30484;52.382;5.260;2022-10-16T10:52:58;20.42;;;2.72;;
44764;SDS011;30484;52.382;5.260;2022-10-16T10:55:38;18.00;;;2.75;;
44764;SDS011;30484;52.382;5.260;2022-10-16T10:58:23;17.80;;;3.03;;
44764;SDS011;30484;52.382;5.260;2022-10-16T11:01:40;16.73;;;2.85;;
44764;SDS011;30484;52.382;5.260;2022-10-16T11:04:41;15.70;;;2.35;;
44764;SDS011;30484;52.382;5.260;2022-10-16T11:08:17;16.23;;;2.95;;
44764;SDS011;30484;52.382;5.260;2022-10-16T11:11:07;15.13;;;2.35;;
44764;SDS011;30484;52.382;5.260;2022-10-16T11:13:55;15.30;;;2.30;;
44764;SDS011;30484;52.382;5.260;2022-10-16T11:16:51;10.02;;;2.17;;
44764;SDS011;30484;52.382;5.260;2022-10-16T11:19:50;14.55;;;2.40;;
44764;SDS011;30484;52.382;5.260;2022-10-16T11:23:10;18.77;;;2.80;;
44764;SDS011;30484;52.382;5.260;2022-10-16T11:26:16;14.95;;;2.92;;
44764;SDS011;30484;52.382;5.260;2022-10-16T11:28:57;13.73;;;2.55;;
44764;SDS011;30484;52.382;5.260;2022-10-16T11:31:55;14.07;;;2.25;;
44764;SDS011;30484;52.382;5.260;2022-10-16T11:37:32;15.75;;;2.70;;
44764;SDS011;30484;52.382;5.260;2022-10-16T11:40:51;17.70;;;3.15;;
44764;SDS011;30484;52.382;5.260;2022-10-16T11:43:49;18.50;;;2.58;;
44764;SDS011;30484;52.382;5.260;2022-10-16T11:46:52;13.75;;;2.80;;
44764;SDS011;30484;52.382;5.260;2022-10-16T11:50:01;16.58;;;2.70;;
44764;SDS011;30484;52.382;5.260;2022-10-16T11:52:53;16.10;;;2.20;;
44764;SDS011;30484;52.382;5.260;2022-10-16T11:55:44;13.07;;;2.30;;
44764;SDS011;30484;52.382;5.260;2022-10-16T11:58:21;11.88;;;2.10;;
44764;SDS011;30484;52.382;5.260;2022-10-16T12:00:57;12.73;;;2.50;;
44764;SDS011;30484;52.382;5.260;2022-10-16T12:03:39;16.25;;;2.67;;
44764;SDS011;30484;52.382;5.260;2022-10-16T12:06:21;15.10;;;2.28;;
44764;SDS011;30484;52.382;5.260;2022-10-16T12:09:00;15.05;;;2.65;;
44764;SDS011;30484;52.382;5.260;2022-10-16T12:11:35;12.30;;;2.20;;
44764;SDS011;30484;52.382;5.260;2022-10-16T12:14:07;15.68;;;2.10;;
44764;SDS011;30484;52.382;5.260;2022-10-16T12:17:24;16.92;;;2.40;;
44764;SDS011;30484;52.382;5.260;2022-10-16T12:20:14;13.55;;;2.03;;
44764;SDS011;30484;52.382;5.260;2022-10-16T12:22:57;9.77;;;2.28;;
44764;SDS011;30484;52.382;5.260;2022-10-16T12:25:30;15.25;;;2.38;;
44764;SDS011;30484;52.382;5.260;2022-10-16T12:28:05;15.98;;;2.33;;
44764;SDS011;30484;52.382;5.260;2022-10-16T12:30:52;7.95;;;2.15;;
44764;SDS011;30484;52.382;5.260;2022-10-16T12:33:24;13.23;;;1.98;;
44764;SDS011;30484;52.382;5.260;2022-10-16T12:35:57;16.25;;;2.55;;
44764;SDS011;30484;52.382;5.260;2022-10-16T12:38:32;11.82;;;2.35;;
44764;SDS011;30484;52.382;5.260;2022-10-16T12:41:24;12.40;;;2.00;;
44764;SDS011;30484;52.382;5.260;2022-10-16T12:43:59;16.35;;;2.90;;
44764;SDS011;30484;52.382;5.260;2022-10-16T12:46:36;16.92;;;2.75;;
44764;SDS011;30484;52.382;5.260;2022-10-16T12:49:19;14.45;;;2.40;;
44764;SDS011;30484;52.382;5.260;2022-10-16T12:51:57;10.85;;;1.85;;
44764;SDS011;30484;52.382;5.260;2022-10-16T12:54:27;9.63;;;1.90;;
44764;SDS011;30484;52.382;5.260;2022-10-16T12:57:04;12.90;;;2.25;;
44764;SDS011;30484;52.382;5.260;2022-10-16T13:00:07;7.80;;;1.88;;
44764;SDS011;30484;52.382;5.260;2022-10-16T13:03:00;16.38;;;2.50;;
44764;SDS011;30484;52.382;5.260;2022-10-16T13:06:09;13.07;;;2.45;;
44764;SDS011;30484;52.382;5.260;2022-10-16T13:08:53;17.90;;;3.20;;
44764;SDS011;30484;52.382;5.260;2022-10-16T13:11:52;17.00;;;3.00;;
44764;SDS011;30484;52.382;5.260;2022-10-16T13:14:54;12.85;;;2.50;;
44764;SDS011;30484;52.382;5.260;2022-10-16T13:17:57;15.48;;;2.22;;
44764;SDS011;30484;52.382;5.260;2022-10-16T13:20:33;20.85;;;3.10;;
44764;SDS011;30484;52.382;5.260;2022-10-16T13:23:21;11.98;;;2.30;;
44764;SDS011;30484;52.382;5.260;2022-10-16T13:26:01;16.75;;;2.55;;
44764;SDS011;30484;52.382;5.260;2022-10-16T13:28:43;15.45;;;2.72;;
44764;SDS011;30484;52.382;5.260;2022-10-16T13:31:15;25.23;;;5.47;;
44764;SDS011;30484;52.382;5.260;2022-10-16T13:33:52;17.50;;;3.53;;
44764;SDS011;30484;52.382;5.260;2022-10-16T13:36:29;12.57;;;2.17;;
44764;SDS011;30484;52.382;5.260;2022-10-16T13:39:10;16.98;;;2.75;;
44764;SDS011;30484;52.382;5.260;2022-10-16T13:41:57;11.38;;;2.38;;
44764;SDS011;30484;52.382;5.260;2022-10-16T13:44:36;13.63;;;2.13;;
44764;SDS011;30484;52.382;5.260;2022-10-16T13:47:17;17.35;;;2.30;;
44764;SDS011;30484;52.382;5.260;2022-10-16T13:49:58;18.83;;;2.90;;
44764;SDS011;30484;52.382;5.260;2022-10-16T13:52:28;20.00;;;3.42;;
44764;SDS011;30484;52.382;5.260;2022-10-16T13:54:58;14.95;;;2.50;;
44764;SDS011;30484;52.382;5.260;2022-10-16T13:57:28;11.43;;;2.30;;
44764;SDS011;30484;52.382;5.260;2022-10-16T13:59:57;16.20;;;2.95;;
44764;SDS011;30484;52.382;5.260;2022-10-16T14:02:29;16.77;;;3.15;;
44764;SDS011;30484;52.382;5.260;2022-10-16T14:05:03;11.57;;;2.72;;
44764;SDS011;30484;52.382;5.260;2022-10-16T14:07:36;17.20;;;2.50;;
44764;SDS011;30484;52.382;5.260;2022-10-16T14:10:07;11.55;;;2.60;;
44764;SDS011;30484;52.382;5.260;2022-10-16T14:12:57;7.88;;;2.10;;
44764;SDS011;30484;52.382;5.260;2022-10-16T14:15:29;8.95;;;1.98;;
44764;SDS011;30484;52.382;5.260;2022-10-16T14:18:02;10.70;;;2.33;;
44764;SDS011;30484;52.382;5.260;2022-10-16T14:20:33;11.45;;;1.95;;
44764;SDS011;30484;52.382;5.260;2022-10-16T14:23:16;15.10;;;1.92;;
44764;SDS011;30484;52.382;5.260;2022-10-16T14:25:52;13.73;;;2.42;;
44764;SDS011;30484;52.382;5.260;2022-10-16T14:28:22;17.92;;;2.75;;
44764;SDS011;30484;52.382;5.260;2022-10-16T14:30:53;16.17;;;2.88;;
44764;SDS011;30484;52.382;5.260;2022-10-16T14:33:32;24.02;;;3.97;;
44764;SDS011;30484;52.382;5.260;2022-10-16T14:36:03;18.50;;;2.75;;
44764;SDS011;30484;52.382;5.260;2022-10-16T14:38:41;23.38;;;4.90;;
44764;SDS011;30484;52.382;5.260;2022-10-16T14:41:19;21.08;;;3.28;;
44764;SDS011;30484;52.382;5.260;2022-10-16T14:43:52;26.92;;;3.63;;
44764;SDS011;30484;52.382;5.260;2022-10-16T14:46:28;17.45;;;2.80;;
44764;SDS011;30484;52.382;5.260;2022-10-16T14:49:12;17.10;;;3.17;;
44764;SDS011;30484;52.382;5.260;2022-10-16T14:51:48;15.38;;;2.88;;
44764;SDS011;30484;52.382;5.260;2022-10-16T14:54:18;23.83;;;5.07;;
44764;SDS011;30484;52.382;5.260;2022-10-16T14:56:50;14.27;;;3.33;;
44764;SDS011;30484;52.382;5.260;2022-10-16T14:59:24;17.65;;;4.28;;
44764;SDS011;30484;52.382;5.260;2022-10-16T15:01:58;12.83;;;3.27;;
44764;SDS011;30484;52.382;5.260;2022-10-16T15:04:30;27.60;;;4.90;;
44764;SDS011;30484;52.382;5.260;2022-10-16T15:07:01;24.48;;;3.97;;
44764;SDS011;30484;52.382;5.260;2022-10-16T15:09:30;17.35;;;2.65;;
44764;SDS011;30484;52.382;5.260;2022-10-16T15:12:01;22.52;;;3.75;;
44764;SDS011;30484;52.382;5.260;2022-10-16T15:14:32;17.67;;;3.10;;
44764;SDS011;30484;52.382;5.260;2022-10-16T15:17:01;12.90;;;2.45;;
44764;SDS011;30484;52.382;5.260;2022-10-16T15:19:32;12.82;;;2.40;;
44764;SDS011;30484;52.382;5.260;2022-10-16T15:22:00;16.85;;;3.20;;
44764;SDS011;30484;52.382;5.260;2022-10-16T15:24:29;11.75;;;2.40;;
44764;SDS011;30484;52.382;5.260;2022-10-16T15:26:58;19.55;;;2.90;;
44764;SDS011;30484;52.382;5.260;2022-10-16T15:29:28;17.27;;;3.20;;
44764;SDS011;30484;52.382;5.260;2022-10-16T15:31:57;16.40;;;2.90;;
44764;SDS011;30484;52.382;5.260;2022-10-16T15:34:25;19.25;;;2.80;;
44764;SDS011;30484;52.382;5.260;2022-10-16T15:36:56;14.75;;;2.58;;
44764;SDS011;30484;52.382;5.260;2022-10-16T15:39:26;16.98;;;2.47;;
44764;SDS011;30484;52.382;5.260;2022-10-16T15:41:56;13.95;;;2.47;;
44764;SDS011;30484;52.382;5.260;2022-10-16T15:44:24;16.58;;;2.83;;